createdAt,value
2022-12-11T00:00:31.692Z,17.40
2022-12-11T00:03:01.236Z,17.83
2022-12-11T00:05:29.418Z,18.07
2022-12-11T00:07:57.591Z,15.13
2022-12-11T00:10:26.013Z,14.70
2022-12-11T00:12:54.218Z,16.57
2022-12-11T00:15:22.343Z,17.70
2022-12-11T00:17:51.863Z,17.23
2022-12-11T00:20:22.251Z,18.77
2022-12-11T00:22:52.847Z,19.03
2022-12-11T00:25:22.527Z,15.93
2022-12-11T00:27:51.066Z,18.20
2022-12-11T00:30:21.403Z,17.47
2022-12-11T00:32:51.815Z,16.40
2022-12-11T00:35:21.867Z,13.53
2022-12-11T00:37:50.058Z,14.63
2022-12-11T00:40:19.595Z,14.73
2022-12-11T00:42:48.018Z,14.70
2022-12-11T00:45:19.078Z,13.40
2022-12-11T00:47:50.188Z,12.43
2022-12-11T00:50:18.514Z,11.93
2022-12-11T00:52:50.644Z,13.23
2022-12-11T00:55:20.306Z,12.87
2022-12-11T00:57:52.774Z,13.50
2022-12-11T01:00:23.111Z,12.80
2022-12-11T01:02:52.643Z,12.77
2022-12-11T01:05:21.602Z,12.80
2022-12-11T01:07:51.851Z,14.00
2022-12-11T01:10:28.906Z,18.20
2022-12-11T01:12:59.294Z,14.27
2022-12-11T01:15:30.156Z,13.40
2022-12-11T01:17:59.725Z,13.90
2022-12-11T01:20:29.712Z,13.63
2022-12-11T01:23:03.780Z,13.83
2022-12-11T01:25:33.525Z,14.20
2022-12-11T01:28:02.806Z,12.50
2022-12-11T01:30:31.579Z,13.17
2022-12-11T01:33:00.873Z,12.60
2022-12-11T01:35:30.458Z,13.57
2022-12-11T01:38:00.431Z,11.40
2022-12-11T01:40:28.574Z,13.20
2022-12-11T01:42:56.702Z,12.30
2022-12-11T01:45:36.563Z,12.90
2022-12-11T01:48:09.524Z,11.73
2022-12-11T01:50:42.302Z,10.67
2022-12-11T01:53:17.561Z,10.63
2022-12-11T01:55:47.579Z,9.67
2022-12-11T01:58:17.527Z,9.90
2022-12-11T02:00:45.647Z,9.73
2022-12-11T02:03:13.821Z,9.60
2022-12-11T02:05:42.053Z,11.10
2022-12-11T02:08:11.977Z,10.03
2022-12-11T02:10:59.803Z,9.00
2022-12-11T02:13:33.615Z,9.50
2022-12-11T02:16:10.046Z,9.27
2022-12-11T02:18:42.165Z,9.67
2022-12-11T02:21:14.306Z,10.50
2022-12-11T02:24:08.234Z,9.90
2022-12-11T02:26:53.497Z,10.30
2022-12-11T02:29:27.300Z,12.63
2022-12-11T02:32:00.110Z,11.63
2022-12-11T02:34:35.095Z,10.60
2022-12-11T02:37:07.375Z,10.07
2022-12-11T02:39:39.378Z,10.57
2022-12-11T02:42:09.319Z,9.63
2022-12-11T02:44:41.183Z,9.30
2022-12-11T02:47:13.563Z,10.00
2022-12-11T02:49:44.401Z,10.37
2022-12-11T02:52:15.696Z,9.23
2022-12-11T02:54:45.816Z,9.27
2022-12-11T02:57:17.556Z,9.80
2022-12-11T02:59:47.906Z,8.27
2022-12-11T03:02:18.870Z,10.00
2022-12-11T03:04:48.111Z,10.70
2022-12-11T03:07:20.477Z,10.13
2022-12-11T03:09:49.432Z,9.80
2022-12-11T03:12:21.435Z,10.40
2022-12-11T03:14:51.353Z,10.70
2022-12-11T03:17:22.376Z,9.80
2022-12-11T03:19:56.637Z,10.50
2022-12-11T03:22:34.135Z,10.20
2022-12-11T03:25:05.383Z,10.80
2022-12-11T03:27:40.343Z,9.43
2022-12-11T03:30:13.999Z,8.73
2022-12-11T03:32:47.609Z,10.33
2022-12-11T03:35:21.601Z,10.90
2022-12-11T03:37:51.837Z,9.93
2022-12-11T03:40:22.638Z,9.40
2022-12-11T03:42:54.663Z,10.17
2022-12-11T03:45:26.019Z,9.57
2022-12-11T03:47:56.296Z,10.53
2022-12-11T03:50:28.340Z,10.80
2022-12-11T03:52:56.886Z,11.30
2022-12-11T03:55:26.262Z,12.20
2022-12-11T03:57:54.387Z,12.23
2022-12-11T04:00:24.300Z,11.60
2022-12-11T04:03:12.756Z,13.93
2022-12-11T04:05:41.901Z,13.43
2022-12-11T04:08:10.184Z,13.97
2022-12-11T04:10:38.396Z,13.20
2022-12-11T04:13:06.570Z,12.83
2022-12-11T04:15:35.256Z,14.97
2022-12-11T04:18:21.314Z,14.07
2022-12-11T04:21:06.419Z,13.17
2022-12-11T04:23:51.940Z,13.53
2022-12-11T04:26:21.682Z,11.47
2022-12-11T04:28:50.572Z,12.67
2022-12-11T04:31:22.117Z,12.97
2022-12-11T04:33:50.805Z,12.53
2022-12-11T04:36:19.155Z,12.07
2022-12-11T04:38:47.319Z,11.67
2022-12-11T04:41:16.941Z,12.43
2022-12-11T04:43:46.214Z,12.77
2022-12-11T04:46:15.870Z,12.80
2022-12-11T04:48:46.339Z,13.63
2022-12-11T04:51:15.379Z,12.70
2022-12-11T04:53:44.008Z,13.10
2022-12-11T04:56:15.517Z,13.37
2022-12-11T04:58:44.927Z,14.17
2022-12-11T05:01:15.219Z,12.87
2022-12-11T05:03:43.877Z,13.50
2022-12-11T05:06:14.340Z,22.53
2022-12-11T05:08:44.023Z,14.47
2022-12-11T05:11:14.825Z,13.10
2022-12-11T05:13:44.232Z,13.87
2022-12-11T05:16:14.920Z,13.93
2022-12-11T05:18:43.403Z,13.53
2022-12-11T05:21:15.051Z,12.73
2022-12-11T05:23:43.778Z,12.07
2022-12-11T05:26:15.163Z,12.97
2022-12-11T05:28:44.411Z,11.60
2022-12-11T05:31:15.519Z,11.53
2022-12-11T05:33:43.861Z,11.00
2022-12-11T05:36:18.337Z,12.00
2022-12-11T05:38:46.652Z,12.37
2022-12-11T05:41:16.602Z,12.07
2022-12-11T05:43:44.809Z,11.60
2022-12-11T05:46:14.679Z,11.40
2022-12-11T05:48:44.078Z,12.30
2022-12-11T05:51:13.399Z,11.60
2022-12-11T05:53:43.913Z,11.90
2022-12-11T05:56:14.264Z,12.97
2022-12-11T05:58:43.980Z,14.30
2022-12-11T06:01:13.756Z,13.70
2022-12-11T06:03:41.935Z,16.70
2022-12-11T06:06:10.322Z,13.13
2022-12-11T06:08:38.736Z,12.30
2022-12-11T06:11:08.441Z,12.87
2022-12-11T06:13:36.985Z,11.90
2022-12-11T06:16:07.553Z,13.60
2022-12-11T06:18:38.030Z,13.20
2022-12-11T06:21:14.185Z,12.50
2022-12-11T06:23:43.111Z,13.30
2022-12-11T06:26:12.994Z,13.67
2022-12-11T06:28:41.311Z,25.20
2022-12-11T06:31:09.768Z,13.97
2022-12-11T06:33:38.332Z,22.20
2022-12-11T06:36:08.238Z,12.53
2022-12-11T06:38:36.833Z,12.27
2022-12-11T06:41:06.280Z,12.40
2022-12-11T06:43:36.814Z,13.63
2022-12-11T06:46:06.301Z,15.10
2022-12-11T06:48:35.257Z,16.50
2022-12-11T06:51:07.766Z,15.93
2022-12-11T06:53:36.232Z,17.50
2022-12-11T06:56:05.512Z,25.13
2022-12-11T06:58:36.623Z,12.63
2022-12-11T07:01:05.810Z,12.70
2022-12-11T07:03:34.671Z,13.30
2022-12-11T07:06:03.226Z,16.07
2022-12-11T07:08:32.083Z,12.60
2022-12-11T07:11:05.115Z,12.73
2022-12-11T07:13:33.786Z,12.70
2022-12-11T07:16:04.761Z,11.53
2022-12-11T07:18:33.296Z,15.60
2022-12-11T07:21:01.466Z,16.07
2022-12-11T07:23:30.055Z,18.27
2022-12-11T07:25:58.759Z,19.40
2022-12-11T07:28:27.237Z,15.47
2022-12-11T07:30:55.347Z,12.50
2022-12-11T07:33:24.865Z,13.30
2022-12-11T07:35:53.011Z,14.23
2022-12-11T07:38:21.441Z,17.77
2022-12-11T07:40:49.561Z,21.43
2022-12-11T07:43:17.679Z,19.10
2022-12-11T07:45:45.859Z,17.37
2022-12-11T07:48:14.438Z,18.93
2022-12-11T07:50:43.958Z,17.37
2022-12-11T07:53:12.239Z,17.53
2022-12-11T07:55:40.354Z,19.20
2022-12-11T07:58:08.504Z,20.03
2022-12-11T08:00:36.638Z,17.93
2022-12-11T08:03:05.042Z,19.17
2022-12-11T08:05:33.122Z,19.20
2022-12-11T08:08:02.771Z,17.83
2022-12-11T08:10:30.950Z,18.23
2022-12-11T08:12:59.085Z,18.90
2022-12-11T08:15:27.330Z,23.17
2022-12-11T08:17:55.409Z,31.20
2022-12-11T08:20:23.505Z,23.57
2022-12-11T08:22:56.011Z,25.17
2022-12-11T08:25:28.445Z,24.70
2022-12-11T08:27:56.566Z,23.70
2022-12-11T08:30:24.976Z,17.83
2022-12-11T08:32:53.282Z,15.50
2022-12-11T08:35:21.690Z,15.83
2022-12-11T08:37:49.939Z,16.90
2022-12-11T08:40:18.187Z,16.43
2022-12-11T08:42:47.755Z,17.13
2022-12-11T08:45:16.045Z,17.53
2022-12-11T08:47:44.198Z,17.20
2022-12-11T08:50:12.432Z,16.53
2022-12-11T08:52:40.626Z,16.80
2022-12-11T08:55:10.099Z,16.93
2022-12-11T08:57:39.883Z,18.20
2022-12-11T09:00:12.599Z,19.30
2022-12-11T09:02:41.005Z,18.90
2022-12-11T09:05:10.372Z,22.77
2022-12-11T09:07:39.451Z,22.97
2022-12-11T09:10:10.132Z,20.13
2022-12-11T09:12:38.972Z,20.33
2022-12-11T09:15:09.592Z,21.60
2022-12-11T09:17:37.998Z,20.90
2022-12-11T09:20:07.226Z,21.33
2022-12-11T09:22:35.598Z,20.33
2022-12-11T09:25:03.747Z,19.20
2022-12-11T09:27:31.904Z,19.70
2022-12-11T09:30:00.050Z,18.53
2022-12-11T09:32:30.448Z,24.03
2022-12-11T09:34:58.547Z,25.83
2022-12-11T09:37:26.749Z,23.10
2022-12-11T09:39:54.893Z,22.87
2022-12-11T09:42:32.128Z,22.53
2022-12-11T09:45:04.546Z,20.10
2022-12-11T09:47:37.811Z,23.60
2022-12-11T09:50:13.999Z,21.10
2022-12-11T09:52:48.549Z,26.10
2022-12-11T09:55:19.619Z,20.33
2022-12-11T09:57:58.517Z,21.07
2022-12-11T10:00:31.742Z,26.97
2022-12-11T10:03:22.083Z,26.17
2022-12-11T10:05:59.671Z,25.17
2022-12-11T10:08:39.041Z,23.03
2022-12-11T10:11:28.094Z,22.97
2022-12-11T10:14:04.189Z,19.60
2022-12-11T10:16:37.987Z,17.97
2022-12-11T10:19:11.472Z,18.37
2022-12-11T10:21:41.253Z,18.70
2022-12-11T10:24:29.359Z,19.47
2022-12-11T10:27:16.242Z,17.33
2022-12-11T10:29:44.529Z,20.17
2022-12-11T10:32:21.256Z,15.50
2022-12-11T10:34:55.615Z,16.70
2022-12-11T10:37:24.350Z,17.07
2022-12-11T10:39:53.781Z,16.80
2022-12-11T10:42:23.950Z,17.73
2022-12-11T10:45:00.501Z,17.20
2022-12-11T10:47:29.459Z,17.13
2022-12-11T10:50:00.353Z,20.10
2022-12-11T10:52:32.650Z,16.90
2022-12-11T10:55:03.320Z,18.67
2022-12-11T10:57:33.807Z,14.83
2022-12-11T11:00:04.696Z,17.40
2022-12-11T11:02:35.895Z,15.47
2022-12-11T11:05:16.847Z,15.63
2022-12-11T11:07:45.453Z,14.87
2022-12-11T11:10:18.986Z,13.70
2022-12-11T11:12:49.393Z,14.27
2022-12-11T11:15:20.533Z,15.67
2022-12-11T11:17:55.459Z,13.60
2022-12-11T11:20:27.783Z,12.03
2022-12-11T11:22:58.156Z,13.17
2022-12-11T11:25:28.701Z,14.70
2022-12-11T11:27:58.812Z,14.23
2022-12-11T11:30:28.778Z,13.00
2022-12-11T11:33:00.831Z,13.37
2022-12-11T11:35:32.370Z,12.57
2022-12-11T11:38:07.008Z,12.00
2022-12-11T11:40:42.794Z,11.00
2022-12-11T11:43:23.087Z,11.90
2022-12-11T11:45:57.740Z,12.10
2022-12-11T11:48:37.666Z,11.23
2022-12-11T11:51:15.238Z,12.10
2022-12-11T11:53:49.515Z,18.37
2022-12-11T11:56:23.752Z,12.60
2022-12-11T11:58:59.608Z,12.20
2022-12-11T12:01:28.312Z,29.30
2022-12-11T12:03:57.574Z,13.30
2022-12-11T12:06:48.989Z,15.70
2022-12-11T12:09:30.825Z,11.90
2022-12-11T12:12:24.735Z,11.60
2022-12-11T12:15:09.462Z,11.60
2022-12-11T12:17:55.195Z,13.80
2022-12-11T12:20:32.580Z,17.77
2022-12-11T12:23:22.936Z,18.90
2022-12-11T12:25:59.035Z,22.30
2022-12-11T12:28:36.005Z,21.20
2022-12-11T12:31:16.283Z,21.10
2022-12-11T12:33:59.607Z,22.00
2022-12-11T12:36:34.531Z,23.60
2022-12-11T12:42:07.545Z,26.50
2022-12-11T12:44:43.041Z,25.07
2022-12-11T12:47:14.789Z,26.73
2022-12-11T12:49:48.631Z,28.43
2022-12-11T12:52:20.688Z,26.73
2022-12-11T12:55:07.717Z,26.20
2022-12-11T12:57:38.369Z,27.57
2022-12-11T13:00:13.242Z,28.43
2022-12-11T13:02:51.168Z,28.40
2022-12-11T13:05:24.925Z,28.07
2022-12-11T13:07:56.385Z,31.70
2022-12-11T13:10:29.836Z,26.67
2022-12-11T13:12:58.736Z,27.60
2022-12-11T13:15:34.803Z,26.47
2022-12-11T13:18:07.564Z,27.00
2022-12-11T13:20:47.507Z,29.07
2022-12-11T13:23:27.879Z,26.90
2022-12-11T13:25:58.947Z,26.93
2022-12-11T13:28:33.438Z,27.70
2022-12-11T13:31:08.372Z,29.43
2022-12-11T13:33:43.937Z,28.10
2022-12-11T13:36:37.823Z,29.63
2022-12-11T13:39:10.916Z,32.70
2022-12-11T13:41:41.534Z,36.37
2022-12-11T13:44:17.153Z,27.30
2022-12-11T13:46:45.435Z,27.97
2022-12-11T13:49:23.034Z,28.90
2022-12-11T13:51:56.239Z,28.17
2022-12-11T13:54:24.936Z,28.67
2022-12-11T13:57:00.598Z,28.53
2022-12-11T13:59:32.810Z,29.10
2022-12-11T14:02:06.231Z,28.47
2022-12-11T14:04:36.255Z,29.30
2022-12-11T14:07:08.681Z,29.53
2022-12-11T14:09:43.513Z,30.80
2022-12-11T14:12:18.555Z,32.33
2022-12-11T14:14:51.606Z,33.10
2022-12-11T14:17:26.624Z,33.97
2022-12-11T14:19:55.746Z,30.00
2022-12-11T14:22:25.711Z,30.90
2022-12-11T14:24:56.389Z,34.47
2022-12-11T14:27:27.446Z,36.13
2022-12-11T14:29:56.242Z,36.97
2022-12-11T14:32:32.399Z,33.30
2022-12-11T14:35:03.522Z,32.70
2022-12-11T14:37:32.468Z,34.07
2022-12-11T14:40:03.168Z,34.00
2022-12-11T14:42:38.212Z,44.20
2022-12-11T14:45:11.752Z,33.73
2022-12-11T14:47:44.141Z,28.87
2022-12-11T14:50:19.146Z,27.47
2022-12-11T14:52:50.055Z,26.07
2022-12-11T14:55:21.121Z,29.50
2022-12-11T14:57:53.304Z,28.50
2022-12-11T15:00:26.472Z,33.50
2022-12-11T15:03:03.392Z,31.60
2022-12-11T15:05:38.869Z,27.97
2022-12-11T15:08:25.509Z,28.07
2022-12-11T15:11:05.862Z,26.00
2022-12-11T15:13:37.321Z,26.90
2022-12-11T15:16:08.495Z,27.90
2022-12-11T15:18:39.648Z,26.20
2022-12-11T15:21:10.018Z,26.10
2022-12-11T15:23:51.393Z,26.93
2022-12-11T15:26:19.826Z,28.60
2022-12-11T15:28:49.399Z,26.83
2022-12-11T15:31:28.558Z,26.83
2022-12-11T15:33:57.132Z,26.60
2022-12-11T15:36:29.535Z,27.57
2022-12-11T15:38:58.001Z,27.20
2022-12-11T15:41:26.848Z,25.57
2022-12-11T15:43:59.812Z,25.87
2022-12-11T15:46:28.066Z,28.27
2022-12-11T15:48:57.927Z,27.77
2022-12-11T15:51:27.549Z,28.17
2022-12-11T15:53:55.756Z,29.33
2022-12-11T15:56:23.939Z,28.83
2022-12-11T15:58:52.326Z,29.53
2022-12-11T16:01:21.850Z,31.27
2022-12-11T16:03:50.445Z,30.57
2022-12-11T16:06:18.542Z,34.40
2022-12-11T16:08:46.679Z,37.63
2022-12-11T16:11:15.312Z,36.30
2022-12-11T16:13:43.497Z,32.90
2022-12-11T16:16:11.719Z,35.17
2022-12-11T16:18:41.335Z,37.20
2022-12-11T16:21:09.464Z,45.47
2022-12-11T16:23:37.900Z,38.67
2022-12-11T16:26:10.072Z,42.10
2022-12-11T16:28:38.511Z,42.37
2022-12-11T16:31:11.965Z,41.30
2022-12-11T16:33:41.640Z,35.50
2022-12-11T16:36:18.060Z,35.53
2022-12-11T16:38:52.902Z,33.63
2022-12-11T16:41:22.964Z,31.17
2022-12-11T16:43:51.697Z,27.67
2022-12-11T16:46:21.113Z,37.20
2022-12-11T16:48:51.127Z,48.83
2022-12-11T16:51:19.358Z,43.67
2022-12-11T16:53:47.601Z,30.53
2022-12-11T16:56:15.928Z,29.20
2022-12-11T16:58:44.559Z,27.33
2022-12-11T17:01:14.750Z,30.43
2022-12-11T17:03:44.604Z,34.30
2022-12-11T17:06:17.137Z,33.10
2022-12-11T17:08:46.135Z,32.60
2022-12-11T17:11:17.265Z,33.47
2022-12-11T17:13:54.256Z,29.50
2022-12-11T17:22:37.974Z,30.40
2022-12-11T17:25:16.351Z,30.77
2022-12-11T17:27:44.914Z,37.63
2022-12-11T17:30:14.336Z,36.93
2022-12-11T17:32:42.778Z,32.83
2022-12-11T17:35:12.150Z,33.23
2022-12-11T17:37:42.070Z,43.63
2022-12-11T17:40:11.128Z,28.60
2022-12-11T17:42:39.263Z,39.33
2022-12-11T17:45:08.522Z,33.20
2022-12-11T17:47:36.798Z,29.00
2022-12-11T17:50:05.399Z,32.80
2022-12-11T17:52:35.631Z,28.37
2022-12-11T17:55:07.890Z,24.03
2022-12-11T17:57:37.943Z,23.40
2022-12-11T18:00:07.916Z,24.67
2022-12-11T18:02:36.080Z,21.10
2022-12-11T18:05:04.359Z,23.80
2022-12-11T18:07:32.456Z,24.00
2022-12-11T18:10:00.759Z,23.13
2022-12-11T18:12:31.058Z,22.00
2022-12-11T18:15:01.607Z,27.03
2022-12-11T18:17:29.793Z,28.27
2022-12-11T18:19:57.946Z,22.63
2022-12-11T18:22:26.113Z,32.77
2022-12-11T18:24:54.653Z,26.80
2022-12-11T18:27:22.964Z,27.40
2022-12-11T18:29:52.481Z,30.83
2022-12-11T18:32:20.710Z,28.30
2022-12-11T18:34:48.977Z,26.90
2022-12-11T18:37:17.111Z,20.00
2022-12-11T18:39:45.315Z,24.37
2022-12-11T18:45:03.101Z,24.50
2022-12-11T18:47:31.738Z,24.00
2022-12-11T18:50:04.083Z,24.30
2022-12-11T18:52:35.986Z,19.20
2022-12-11T18:55:04.201Z,21.77
2022-12-11T18:57:32.518Z,15.20
2022-12-11T19:00:07.540Z,15.47
2022-12-11T19:02:36.044Z,13.83
2022-12-11T19:05:05.323Z,11.30
2022-12-11T19:07:33.511Z,10.87
2022-12-11T19:10:01.788Z,15.40
2022-12-11T19:12:29.980Z,16.43
2022-12-11T19:14:58.116Z,14.17
2022-12-11T19:17:27.610Z,11.80
2022-12-11T19:19:55.792Z,35.00
2022-12-11T19:22:23.923Z,17.90
2022-12-11T19:24:52.146Z,23.00
2022-12-11T19:27:20.361Z,19.90
2022-12-11T19:29:48.525Z,10.30
2022-12-11T19:32:16.704Z,12.10
2022-12-11T19:34:46.266Z,11.90
2022-12-11T19:37:14.492Z,12.20
2022-12-11T19:39:42.713Z,15.23
2022-12-11T19:42:10.837Z,14.33
2022-12-11T19:44:39.028Z,10.37
2022-12-11T19:47:07.201Z,13.93
2022-12-11T19:49:35.499Z,14.63
2022-12-11T19:52:05.664Z,15.60
2022-12-11T19:54:33.928Z,19.30
2022-12-11T19:57:02.091Z,25.87
2022-12-11T19:59:30.290Z,23.07
2022-12-11T20:01:58.481Z,19.20
2022-12-11T20:04:26.706Z,16.03
2022-12-11T20:06:54.923Z,14.60
2022-12-11T20:09:25.361Z,14.90
2022-12-11T20:11:53.494Z,24.57
2022-12-11T20:14:23.923Z,19.40
2022-12-11T20:17:10.963Z,15.87
2022-12-11T20:19:40.906Z,14.33
2022-12-11T20:22:09.377Z,12.17
2022-12-11T20:24:39.067Z,10.70
2022-12-11T20:27:07.348Z,10.00
2022-12-11T20:29:35.677Z,12.87
2022-12-11T20:32:03.939Z,12.60
2022-12-11T20:34:32.225Z,12.93
2022-12-11T20:37:03.044Z,12.57
2022-12-11T20:39:32.130Z,11.77
2022-12-11T20:42:04.933Z,8.37
2022-12-11T20:44:33.407Z,7.53
2022-12-11T20:47:01.522Z,6.70
2022-12-11T20:49:29.750Z,7.73
2022-12-11T20:51:57.923Z,7.13
2022-12-11T20:54:26.052Z,10.17
2022-12-11T20:56:54.254Z,9.70
2022-12-11T20:59:26.093Z,8.70
2022-12-11T21:01:57.446Z,9.17
2022-12-11T21:04:26.010Z,10.40
2022-12-11T21:06:56.254Z,15.07
2022-12-11T21:09:26.756Z,18.37
2022-12-11T21:11:55.023Z,14.30
2022-12-11T21:14:24.665Z,15.90
2022-12-11T21:16:52.825Z,12.70
2022-12-11T21:19:21.617Z,13.53
2022-12-11T21:21:50.671Z,10.70
2022-12-11T21:24:21.402Z,9.20
2022-12-11T21:26:50.483Z,10.27
2022-12-11T21:29:18.650Z,8.97
2022-12-11T21:31:48.758Z,8.30
2022-12-11T21:34:22.037Z,7.90
2022-12-11T21:36:56.472Z,7.40
2022-12-11T21:39:25.046Z,9.80
2022-12-11T21:41:53.281Z,8.43
2022-12-11T21:47:11.504Z,6.57
2022-12-11T21:49:39.653Z,6.90
2022-12-11T21:52:13.971Z,5.93
2022-12-11T21:54:42.629Z,6.80
2022-12-11T21:57:10.785Z,6.87
2022-12-11T21:59:38.975Z,7.07
2022-12-11T22:02:07.304Z,7.33
2022-12-11T22:04:37.485Z,7.87
2022-12-11T22:07:05.740Z,8.23
2022-12-11T22:09:36.567Z,7.23
2022-12-11T22:12:05.277Z,6.03
2022-12-11T22:14:34.735Z,5.90
2022-12-11T22:17:03.303Z,5.57
2022-12-11T22:19:32.858Z,5.90
2022-12-11T22:22:02.562Z,5.93
2022-12-11T22:24:31.599Z,6.53
2022-12-11T22:26:59.837Z,6.83
2022-12-11T22:29:28.057Z,5.33
2022-12-11T22:31:56.299Z,5.53
2022-12-11T22:34:24.510Z,5.30
2022-12-11T22:36:52.729Z,5.13
2022-12-11T22:39:22.358Z,4.73
2022-12-11T22:41:50.513Z,4.73
2022-12-11T22:44:20.462Z,5.20
2022-12-11T22:46:50.541Z,4.50
2022-12-11T22:49:19.229Z,5.73
2022-12-11T22:51:47.511Z,5.10
2022-12-11T22:54:15.735Z,4.63
2022-12-11T22:56:45.308Z,5.00
2022-12-11T22:59:13.526Z,6.23
2022-12-11T23:01:41.689Z,8.40
2022-12-11T23:04:09.883Z,8.57
2022-12-11T23:06:38.791Z,7.80
2022-12-11T23:09:07.263Z,5.00
2022-12-11T23:11:37.638Z,5.30
2022-12-11T23:14:09.426Z,4.20
2022-12-11T23:16:37.977Z,5.67
2022-12-11T23:19:06.250Z,7.23
2022-12-11T23:21:35.101Z,9.07
2022-12-11T23:24:04.083Z,13.00
2022-12-11T23:26:33.021Z,18.00
2022-12-11T23:29:01.615Z,10.70
2022-12-11T23:31:31.349Z,9.10
2022-12-11T23:34:00.169Z,7.23
2022-12-11T23:36:29.878Z,5.57
2022-12-11T23:38:58.160Z,5.50
2022-12-11T23:41:26.507Z,5.40
2022-12-11T23:43:54.831Z,5.03
2022-12-11T23:46:25.364Z,4.80
2022-12-11T23:48:55.945Z,5.30
2022-12-11T23:51:26.170Z,4.80
2022-12-11T23:53:54.763Z,4.27
2022-12-11T23:56:25.461Z,4.30
2022-12-11T23:58:54.157Z,5.23
